createdAt,value
2022-10-11T00:00:30.679Z,17.79
2022-10-11T00:01:30.667Z,17.81
2022-10-11T00:02:30.681Z,17.79
2022-10-11T00:03:30.680Z,17.79
2022-10-11T00:04:30.668Z,17.77
2022-10-11T00:05:30.669Z,17.76
2022-10-11T00:06:30.681Z,17.75
2022-10-11T00:07:30.681Z,17.77
2022-10-11T00:08:30.669Z,17.78
2022-10-11T00:09:30.669Z,17.77
2022-10-11T00:10:30.683Z,17.75
2022-10-11T00:11:30.684Z,17.74
2022-10-11T00:12:30.670Z,17.74
2022-10-11T00:13:30.684Z,17.7
2022-10-11T00:14:30.684Z,17.68
2022-10-11T00:15:30.685Z,17.67
2022-10-11T00:16:30.684Z,17.66
2022-10-11T00:17:30.686Z,17.62
2022-10-11T00:18:30.686Z,17.62
2022-10-11T00:19:30.685Z,17.64
2022-10-11T00:20:30.673Z,17.62
2022-10-11T00:21:30.687Z,17.61
2022-10-11T00:22:30.686Z,17.59
2022-10-11T00:23:30.674Z,17.58
2022-10-11T00:24:30.674Z,17.56
2022-10-11T00:25:30.687Z,17.51
2022-10-11T00:26:30.688Z,17.45
2022-10-11T00:27:30.675Z,17.43
2022-10-11T00:28:30.676Z,17.4
2022-10-11T00:29:30.689Z,17.41
2022-10-11T00:30:30.690Z,17.45
2022-10-11T00:31:33.696Z,17.48
2022-10-11T00:32:30.689Z,17.51
2022-10-11T00:33:30.691Z,17.53
2022-10-11T00:34:30.690Z,17.54
2022-10-11T00:35:30.678Z,17.52
2022-10-11T00:36:30.692Z,17.52
2022-10-11T00:37:30.691Z,17.51
2022-10-11T00:38:30.692Z,17.51
2022-10-11T00:39:30.679Z,17.49
2022-10-11T00:40:30.693Z,17.45
2022-10-11T00:41:30.693Z,17.4
2022-10-11T00:42:30.694Z,17.36
2022-10-11T00:43:30.680Z,17.31
2022-10-11T00:44:30.694Z,17.27
2022-10-11T00:45:30.695Z,17.23
2022-10-11T00:46:30.682Z,17.21
2022-10-11T00:47:30.683Z,17.19
2022-10-11T00:48:30.695Z,17.16
2022-10-11T00:49:30.695Z,17.14
2022-10-11T00:50:30.682Z,17.12
2022-10-11T00:51:30.697Z,17.1
2022-10-11T00:52:30.697Z,17.09
2022-10-11T00:53:30.697Z,17.08
2022-10-11T00:54:30.696Z,17.07
2022-10-11T00:55:30.698Z,17.04
2022-10-11T00:56:30.699Z,17.04
2022-10-11T00:57:30.697Z,17.04
2022-10-11T00:58:30.685Z,17.02
2022-10-11T00:59:30.699Z,16.98
2022-10-11T01:00:30.699Z,16.95
2022-10-11T01:01:30.686Z,16.94
2022-10-11T01:02:30.687Z,16.9
2022-10-11T01:03:30.700Z,16.87
2022-10-11T01:04:39.959Z,16.85
2022-10-11T01:05:30.687Z,16.83
2022-10-11T01:06:30.688Z,16.81
2022-10-11T01:07:30.702Z,16.78
2022-10-11T01:08:30.702Z,16.76
2022-10-11T01:09:30.688Z,16.74
2022-10-11T01:10:30.703Z,16.69
2022-10-11T01:11:30.703Z,16.65
2022-10-11T01:12:30.702Z,16.62
2022-10-11T01:13:30.703Z,16.6
2022-10-11T01:14:30.703Z,16.57
2022-10-11T01:15:30.703Z,16.54
2022-10-11T01:16:30.704Z,16.54
2022-10-11T01:17:30.692Z,16.53
2022-10-11T01:18:30.705Z,16.52
2022-10-11T01:19:30.704Z,16.52
2022-10-11T01:20:30.692Z,16.53
2022-10-11T01:21:30.692Z,16.53
2022-10-11T01:22:30.705Z,16.52
2022-10-11T01:23:30.705Z,16.52
2022-10-11T01:24:30.693Z,16.5
2022-10-11T01:25:30.771Z,16.45
2022-10-11T01:26:30.707Z,16.4
2022-10-11T01:27:30.707Z,16.37
2022-10-11T01:28:30.694Z,16.35
2022-10-11T01:29:30.708Z,16.33
2022-10-11T01:30:30.709Z,16.31
2022-10-11T01:31:38.943Z,16.29
2022-10-11T01:32:30.696Z,16.26
2022-10-11T01:33:30.710Z,16.24
2022-10-11T01:34:30.710Z,16.21
2022-10-11T01:35:30.710Z,16.21
2022-10-11T01:36:30.698Z,16.2
2022-10-11T01:37:30.711Z,16.19
2022-10-11T01:38:30.711Z,16.18
2022-10-11T01:39:30.698Z,16.19
2022-10-11T01:40:30.698Z,16.19
2022-10-11T01:41:38.946Z,16.17
2022-10-11T01:42:30.711Z,16.16
2022-10-11T01:43:30.699Z,16.12
2022-10-11T01:44:30.700Z,16.07
2022-10-11T01:45:30.713Z,16.03
2022-10-11T01:46:30.714Z,16
2022-10-11T01:47:30.700Z,15.97
2022-10-11T01:48:30.713Z,15.93
2022-10-11T01:49:30.713Z,15.9
2022-10-11T01:50:30.714Z,15.9
2022-10-11T01:51:30.701Z,15.9
2022-10-11T01:52:30.715Z,15.88
2022-10-11T01:53:30.716Z,15.85
2022-10-11T01:54:30.716Z,15.83
2022-10-11T01:55:30.703Z,15.78
2022-10-11T01:56:30.716Z,15.74
2022-10-11T01:57:30.718Z,15.7
2022-10-11T01:58:30.717Z,15.69
2022-10-11T01:59:30.705Z,15.68
2022-10-11T02:00:30.718Z,15.67
2022-10-11T02:01:30.717Z,15.68
2022-10-11T02:02:30.705Z,15.7
2022-10-11T02:03:30.706Z,15.7
2022-10-11T02:04:30.718Z,15.71
2022-10-11T02:05:30.719Z,15.74
2022-10-11T02:06:30.706Z,15.76
2022-10-11T02:07:30.720Z,15.77
2022-10-11T02:08:30.720Z,15.78
2022-10-11T02:09:30.719Z,15.81
2022-10-11T02:10:30.720Z,15.84
2022-10-11T02:11:30.721Z,15.87
2022-10-11T02:12:30.722Z,15.91
2022-10-11T02:13:30.721Z,15.98
2022-10-11T02:14:30.708Z,16.04
2022-10-11T02:15:30.722Z,16.09
2022-10-11T02:16:30.722Z,16.15
2022-10-11T02:17:30.709Z,16.21
2022-10-11T02:18:30.710Z,16.27
2022-10-11T02:19:30.723Z,16.29
2022-10-11T02:20:30.723Z,16.32
2022-10-11T02:21:30.710Z,16.33
2022-10-11T02:22:30.772Z,16.34
2022-10-11T02:23:30.724Z,16.35
2022-10-11T02:24:30.725Z,16.4
2022-10-11T02:25:30.712Z,16.45
2022-10-11T02:26:30.725Z,16.48
2022-10-11T02:27:30.725Z,16.48
2022-10-11T02:28:30.725Z,16.49
2022-10-11T02:29:30.713Z,16.5
2022-10-11T02:30:30.727Z,16.5
2022-10-11T02:31:30.726Z,16.52
2022-10-11T02:32:30.726Z,16.54
2022-10-11T02:33:30.714Z,16.52
2022-10-11T02:34:30.768Z,16.54
2022-10-11T02:35:30.727Z,16.58
2022-10-11T02:36:30.715Z,16.62
2022-10-11T02:37:30.716Z,16.64
2022-10-11T02:38:30.729Z,16.67
2022-10-11T02:39:30.729Z,16.73
2022-10-11T02:40:30.716Z,16.79
2022-10-11T02:41:30.729Z,16.85
2022-10-11T02:42:39.988Z,16.87
2022-10-11T02:43:30.730Z,16.91
2022-10-11T02:44:30.717Z,16.95
2022-10-11T02:45:30.731Z,16.98
2022-10-11T02:46:30.730Z,16.99
2022-10-11T02:47:30.731Z,17.03
2022-10-11T02:48:30.718Z,17.04
2022-10-11T02:49:30.732Z,17.02
2022-10-11T02:50:30.731Z,17
2022-10-11T02:51:30.733Z,16.99
2022-10-11T02:52:30.719Z,17
2022-10-11T02:53:30.733Z,17.01
2022-10-11T02:54:30.734Z,17.04
2022-10-11T02:55:30.734Z,17.04
2022-10-11T02:56:30.721Z,17.06
2022-10-11T02:57:30.735Z,17.07
2022-10-11T02:58:30.735Z,17.08
2022-10-11T02:59:30.722Z,17.09
2022-10-11T03:00:30.722Z,17.11
2022-10-11T03:01:30.736Z,17.12
2022-10-11T03:02:30.736Z,17.15
2022-10-11T03:03:30.723Z,17.18
2022-10-11T03:04:30.737Z,17.19
2022-10-11T03:05:30.737Z,17.18
2022-10-11T03:06:30.736Z,17.2
2022-10-11T03:07:30.724Z,17.23
2022-10-11T03:08:30.738Z,17.27
2022-10-11T03:09:30.738Z,17.33
2022-10-11T03:10:30.738Z,17.37
2022-10-11T03:11:30.725Z,17.37
2022-10-11T03:12:30.739Z,17.36
2022-10-11T03:13:30.738Z,17.36
2022-10-11T03:14:30.740Z,17.35
2022-10-11T03:15:30.726Z,17.34
2022-10-11T03:16:30.740Z,17.35
2022-10-11T03:17:30.741Z,17.39
2022-10-11T03:18:30.727Z,17.44
2022-10-11T03:19:30.729Z,17.46
2022-10-11T03:20:30.742Z,17.49
2022-10-11T03:21:30.741Z,17.52
2022-10-11T03:22:30.728Z,17.53
2022-10-11T03:23:30.743Z,17.51
2022-10-11T03:24:30.743Z,17.5
2022-10-11T03:25:30.742Z,17.51
2022-10-11T03:26:30.730Z,17.52
2022-10-11T03:27:30.744Z,17.53
2022-10-11T03:28:30.745Z,17.53
2022-10-11T03:29:30.743Z,17.54
2022-10-11T03:30:30.731Z,17.53
2022-10-11T03:31:30.745Z,17.53
2022-10-11T03:32:30.744Z,17.54
2022-10-11T03:33:30.732Z,17.56
2022-10-11T03:34:30.732Z,17.56
2022-10-11T03:35:30.746Z,17.57
2022-10-11T03:36:30.747Z,17.6
2022-10-11T03:37:30.733Z,17.62
2022-10-11T03:38:30.733Z,17.67
2022-10-11T03:39:30.746Z,17.7
2022-10-11T03:40:30.748Z,17.75
2022-10-11T03:41:30.734Z,17.78
2022-10-11T03:42:30.748Z,17.79
2022-10-11T03:43:30.748Z,17.82
2022-10-11T03:44:30.749Z,17.85
2022-10-11T03:45:30.736Z,17.87
2022-10-11T03:46:30.749Z,17.87
2022-10-11T03:47:30.750Z,17.87
2022-10-11T03:48:30.749Z,17.85
2022-10-11T03:49:30.738Z,17.84
2022-10-11T03:50:30.751Z,17.81
2022-10-11T03:51:30.751Z,17.77
2022-10-11T03:52:30.738Z,17.71
2022-10-11T03:53:30.738Z,17.64
2022-10-11T03:54:30.752Z,17.56
2022-10-11T03:55:30.751Z,17.5
2022-10-11T03:56:30.739Z,17.46
2022-10-11T03:57:30.740Z,17.46
2022-10-11T03:58:30.752Z,17.48
2022-10-11T03:59:30.754Z,17.51
2022-10-11T04:00:30.740Z,17.51
2022-10-11T04:01:30.754Z,17.51
2022-10-11T04:02:30.755Z,17.49
2022-10-11T04:03:30.754Z,17.46
2022-10-11T04:04:30.742Z,17.45
2022-10-11T04:05:30.756Z,17.45
2022-10-11T04:06:30.757Z,17.49
2022-10-11T04:07:30.756Z,17.54
2022-10-11T04:08:30.743Z,17.59
2022-10-11T04:09:30.757Z,17.64
2022-10-11T04:10:30.757Z,17.69
2022-10-11T04:11:30.744Z,17.75
2022-10-11T04:12:30.744Z,17.77
2022-10-11T04:13:30.757Z,17.79
2022-10-11T04:14:30.758Z,17.82
2022-10-11T04:15:30.745Z,17.82
2022-10-11T04:16:30.746Z,17.81
2022-10-11T04:17:30.759Z,17.81
2022-10-11T04:18:30.760Z,17.84
2022-10-11T04:19:30.746Z,17.85
2022-10-11T04:20:40.019Z,17.83
2022-10-11T04:21:30.761Z,17.79
2022-10-11T04:22:30.760Z,17.74
2022-10-11T04:23:30.747Z,17.68
2022-10-11T04:24:30.761Z,17.6
2022-10-11T04:25:30.761Z,17.57
2022-10-11T04:26:30.761Z,17.56
2022-10-11T04:27:30.749Z,17.54
2022-10-11T04:28:30.763Z,17.53
2022-10-11T04:29:30.763Z,17.53
2022-10-11T04:30:30.773Z,17.54
2022-10-11T04:31:30.751Z,17.54
2022-10-11T04:32:30.764Z,17.54
2022-10-11T04:33:30.764Z,17.59
2022-10-11T04:34:30.751Z,17.62
2022-10-11T04:35:30.751Z,17.68
2022-10-11T04:36:30.765Z,17.7
2022-10-11T04:37:30.765Z,17.74
2022-10-11T04:38:30.752Z,17.77
2022-10-11T04:39:30.766Z,17.77
2022-10-11T04:40:30.765Z,17.75
2022-10-11T04:41:30.766Z,17.74
2022-10-11T04:42:30.753Z,17.73
2022-10-11T04:43:30.767Z,17.69
2022-10-11T04:44:30.768Z,17.68
2022-10-11T04:45:30.767Z,17.69
2022-10-11T04:46:30.756Z,17.7
2022-10-11T04:47:30.769Z,17.71
2022-10-11T04:48:30.768Z,17.74
2022-10-11T04:49:30.756Z,17.77
2022-10-11T04:50:30.756Z,17.78
2022-10-11T04:51:30.770Z,17.79
2022-10-11T04:52:30.770Z,17.82
2022-10-11T04:53:30.757Z,17.85
2022-10-11T04:54:30.757Z,17.87
2022-10-11T04:55:30.771Z,17.87
2022-10-11T04:56:30.835Z,17.91
2022-10-11T04:57:30.758Z,17.93
2022-10-11T04:58:30.772Z,17.93
2022-10-11T04:59:30.771Z,17.92
2022-10-11T05:00:30.772Z,17.93
2022-10-11T05:01:30.759Z,17.94
2022-10-11T05:02:30.773Z,17.93
2022-10-11T05:03:30.773Z,17.94
2022-10-11T05:04:30.774Z,17.95
2022-10-11T05:05:30.761Z,17.94
2022-10-11T05:06:30.774Z,17.91
2022-10-11T05:07:30.775Z,17.9
2022-10-11T05:08:30.788Z,17.91
2022-10-11T05:09:30.762Z,17.9
2022-10-11T05:10:30.776Z,17.89
2022-10-11T05:11:30.775Z,17.87
2022-10-11T05:12:30.763Z,17.86
2022-10-11T05:13:30.764Z,17.85
2022-10-11T05:14:30.777Z,17.82
2022-10-11T05:15:30.802Z,17.81
2022-10-11T05:16:30.764Z,17.79
2022-10-11T05:17:30.778Z,17.77
2022-10-11T05:18:30.778Z,17.73
2022-10-11T05:19:30.779Z,17.7
2022-10-11T05:20:30.765Z,17.68
2022-10-11T05:21:30.779Z,17.65
2022-10-11T05:22:30.779Z,17.62
2022-10-11T05:23:30.780Z,17.61
2022-10-11T05:24:30.767Z,17.62
2022-10-11T05:25:30.781Z,17.65
2022-10-11T05:26:30.781Z,17.68
2022-10-11T05:27:30.767Z,17.73
2022-10-11T05:28:30.768Z,17.79
2022-10-11T05:29:30.782Z,17.85
2022-10-11T05:30:30.781Z,17.9
2022-10-11T05:31:30.769Z,17.93
2022-10-11T05:32:30.769Z,17.95
2022-10-11T05:33:30.783Z,17.95
2022-10-11T05:34:30.782Z,17.99
2022-10-11T05:35:30.770Z,18.03
2022-10-11T05:36:30.784Z,18.04
2022-10-11T05:37:30.784Z,18.07
2022-10-11T05:38:30.785Z,18.1
2022-10-11T05:39:30.785Z,18.12
2022-10-11T05:40:30.784Z,18.12
2022-10-11T05:41:30.785Z,18.14
2022-10-11T05:42:30.785Z,18.16
2022-10-11T05:43:30.773Z,18.2
2022-10-11T05:44:30.786Z,18.23
2022-10-11T05:45:30.786Z,18.27
2022-10-11T05:46:30.773Z,18.29
2022-10-11T05:47:30.775Z,18.29
2022-10-11T05:48:30.787Z,18.28
2022-10-11T05:49:30.788Z,18.26
2022-10-11T05:50:30.775Z,18.27
2022-10-11T05:51:30.814Z,18.29
2022-10-11T05:52:30.789Z,18.34
2022-10-11T05:53:30.789Z,18.39
2022-10-11T05:54:30.776Z,18.44
2022-10-11T05:55:30.790Z,18.45
2022-10-11T05:56:30.790Z,18.46
2022-10-11T05:57:30.790Z,18.49
2022-10-11T05:58:40.036Z,18.48
2022-10-11T05:59:30.790Z,18.45
2022-10-11T06:00:30.792Z,18.45
2022-10-11T06:01:30.791Z,18.45
2022-10-11T06:02:30.780Z,18.45
2022-10-11T06:03:30.793Z,18.44
2022-10-11T06:04:30.792Z,18.41
2022-10-11T06:05:30.780Z,18.4
2022-10-11T06:06:30.780Z,18.36
2022-10-11T06:07:30.793Z,18.31
2022-10-11T06:08:30.795Z,18.28
2022-10-11T06:09:30.781Z,18.27
2022-10-11T06:10:30.781Z,18.25
2022-10-11T06:11:30.794Z,18.21
2022-10-11T06:12:30.795Z,18.19
2022-10-11T06:13:30.782Z,18.17
2022-10-11T06:14:30.795Z,18.14
2022-10-11T06:15:30.795Z,18.12
2022-10-11T06:16:30.797Z,18.1
2022-10-11T06:17:30.796Z,18.09
2022-10-11T06:18:30.797Z,18.07
2022-10-11T06:19:30.798Z,18.06
2022-10-11T06:20:30.798Z,18.04
2022-10-11T06:21:30.785Z,18.04
2022-10-11T06:22:30.798Z,18.04
2022-10-11T06:23:30.798Z,18.04
2022-10-11T06:24:30.786Z,18.08
2022-10-11T06:25:30.787Z,18.09
2022-10-11T06:26:30.800Z,18.09
2022-10-11T06:27:30.799Z,18.11
2022-10-11T06:28:30.787Z,18.15
2022-10-11T06:29:30.864Z,18.17
2022-10-11T06:30:30.800Z,18.2
2022-10-11T06:31:30.801Z,18.2
2022-10-11T06:32:30.788Z,18.23
2022-10-11T06:33:30.802Z,18.24
2022-10-11T06:34:30.801Z,18.23
2022-10-11T06:35:30.803Z,18.24
2022-10-11T06:36:30.789Z,18.24
2022-10-11T06:37:30.803Z,18.23
2022-10-11T06:38:30.803Z,18.2
2022-10-11T06:39:30.804Z,18.17
2022-10-11T06:40:30.791Z,18.12
2022-10-11T06:41:30.854Z,18.11
2022-10-11T06:42:30.804Z,18.09
2022-10-11T06:43:30.792Z,18.09
2022-10-11T06:44:30.792Z,18.06
2022-10-11T06:45:30.806Z,18.04
2022-10-11T06:46:30.806Z,18.03
2022-10-11T06:47:30.793Z,18.02
2022-10-11T06:48:30.807Z,18.03
2022-10-11T06:49:30.807Z,18.02
2022-10-11T06:50:30.808Z,18.01
2022-10-11T06:51:30.794Z,17.98
2022-10-11T06:52:30.930Z,17.96
2022-10-11T06:53:30.809Z,17.96
2022-10-11T06:54:30.808Z,17.94
2022-10-11T06:55:30.796Z,17.92
2022-10-11T06:56:30.810Z,17.89
2022-10-11T06:57:30.810Z,17.87
2022-10-11T06:58:30.810Z,17.84
2022-10-11T06:59:30.797Z,17.83
2022-10-11T07:00:30.811Z,17.81
2022-10-11T07:01:30.810Z,17.81
2022-10-11T07:02:30.798Z,17.81
2022-10-11T07:03:30.799Z,17.79
2022-10-11T07:04:30.812Z,17.77
2022-10-11T07:05:30.813Z,17.76
2022-10-11T07:06:30.799Z,17.77
2022-10-11T07:07:30.800Z,17.78
2022-10-11T07:08:30.813Z,17.78
2022-10-11T07:09:30.814Z,17.79
2022-10-11T07:10:30.800Z,17.79
2022-10-11T07:11:30.814Z,17.82
2022-10-11T07:12:30.815Z,17.83
2022-10-11T07:13:30.814Z,17.84
2022-10-11T07:14:30.801Z,17.85
2022-10-11T07:15:30.816Z,17.82
2022-10-11T07:16:30.816Z,17.79
2022-10-11T07:17:30.816Z,17.81
2022-10-11T07:18:30.803Z,17.83
2022-10-11T07:19:30.817Z,17.87
2022-10-11T07:20:30.816Z,17.92
2022-10-11T07:21:30.804Z,17.95
2022-10-11T07:22:30.805Z,17.96
2022-10-11T07:23:30.817Z,17.98
2022-10-11T07:24:30.818Z,18
2022-10-11T07:25:30.805Z,18.02
2022-10-11T07:26:30.819Z,18.02
2022-10-11T07:27:30.819Z,18.02
2022-10-11T07:28:30.820Z,18.04
2022-10-11T07:29:30.806Z,18.04
2022-10-11T07:30:30.820Z,18.02
2022-10-11T07:31:30.885Z,18
2022-10-11T07:32:30.821Z,18
2022-10-11T07:33:30.808Z,18.01
2022-10-11T07:34:30.821Z,18.02
2022-10-11T07:35:30.822Z,18.02
2022-10-11T07:36:30.822Z,18.04
2022-10-11T07:37:40.067Z,18.07
2022-10-11T07:38:30.871Z,18.09
2022-10-11T07:39:30.823Z,18.11
2022-10-11T07:40:30.810Z,18.12
2022-10-11T07:41:30.810Z,18.11
2022-10-11T07:42:30.824Z,18.04
2022-10-11T07:43:30.824Z,17.99
2022-10-11T07:44:30.811Z,17.95
2022-10-11T07:45:30.825Z,17.91
2022-10-11T07:46:30.825Z,17.9
2022-10-11T07:47:30.825Z,17.91
2022-10-11T07:48:30.812Z,17.93
2022-10-11T07:49:30.826Z,17.95
2022-10-11T07:50:30.853Z,18.02
2022-10-11T07:51:30.826Z,18.08
2022-10-11T07:52:36.893Z,18.12
2022-10-11T07:53:30.828Z,18.17
2022-10-11T07:54:30.828Z,18.25
2022-10-11T07:55:30.827Z,18.33
2022-10-11T07:56:30.815Z,18.39
2022-10-11T07:57:30.829Z,18.43
2022-10-11T07:58:30.828Z,18.48
2022-10-11T07:59:30.816Z,18.53
2022-10-11T08:00:30.816Z,18.56
2022-10-11T08:01:30.830Z,18.58
2022-10-11T08:02:30.831Z,18.6
2022-10-11T08:03:30.817Z,18.64
2022-10-11T08:04:30.817Z,18.65
2022-10-11T08:05:30.831Z,18.67
2022-10-11T08:06:30.831Z,18.7
2022-10-11T08:07:30.818Z,18.73
2022-10-11T08:08:30.832Z,18.75
2022-10-11T08:09:30.832Z,18.76
2022-10-11T08:10:30.832Z,18.76
2022-10-11T08:11:30.820Z,18.76
2022-10-11T08:12:30.833Z,18.71
2022-10-11T08:13:30.833Z,18.68
2022-10-11T08:14:30.833Z,18.67
2022-10-11T08:15:30.821Z,18.68
2022-10-11T08:16:30.835Z,18.68
2022-10-11T08:17:30.834Z,18.69
2022-10-11T08:18:30.822Z,18.68
2022-10-11T08:19:30.823Z,18.67
2022-10-11T08:20:30.835Z,18.68
2022-10-11T08:21:30.837Z,18.7
2022-10-11T08:22:30.823Z,18.74
2022-10-11T08:23:30.879Z,18.75
2022-10-11T08:24:30.837Z,18.76
2022-10-11T08:25:30.838Z,18.75
2022-10-11T08:26:30.824Z,18.74
2022-10-11T08:27:30.839Z,18.73
2022-10-11T08:28:30.838Z,18.73
2022-10-11T08:29:30.838Z,18.7
2022-10-11T08:30:30.826Z,18.73
2022-10-11T08:31:30.839Z,18.76
2022-10-11T08:32:30.840Z,18.81
2022-10-11T08:33:30.840Z,18.85
2022-10-11T08:34:30.827Z,18.87
2022-10-11T08:35:30.889Z,18.92
2022-10-11T08:36:30.840Z,18.96
2022-10-11T08:37:30.828Z,19
2022-10-11T08:38:30.829Z,19.01
2022-10-11T08:39:30.842Z,19.02
2022-10-11T08:40:30.842Z,19.07
2022-10-11T08:41:30.829Z,19.14
2022-10-11T08:42:30.843Z,19.2
2022-10-11T08:43:30.843Z,19.24
2022-10-11T08:44:30.844Z,19.31
2022-10-11T08:45:30.831Z,19.37
2022-10-11T08:46:30.845Z,19.45
2022-10-11T08:47:30.889Z,19.58
2022-10-11T08:48:30.844Z,19.7
2022-10-11T08:49:30.832Z,19.77
2022-10-11T08:50:30.846Z,19.79
2022-10-11T08:51:30.845Z,19.78
2022-10-11T08:52:34.645Z,19.77
2022-10-11T08:53:30.833Z,19.75
2022-10-11T08:54:30.848Z,19.67
2022-10-11T08:55:30.848Z,19.58
2022-10-11T08:56:30.834Z,19.51
2022-10-11T08:57:30.835Z,19.45
2022-10-11T08:58:30.849Z,19.42
2022-10-11T08:59:30.848Z,19.35
2022-10-11T09:00:30.836Z,19.28
2022-10-11T09:01:30.837Z,19.27
2022-10-11T09:02:30.850Z,19.31
2022-10-11T09:03:30.850Z,19.37
2022-10-11T09:04:30.837Z,19.42
2022-10-11T09:05:30.851Z,19.48
2022-10-11T09:06:30.852Z,19.54
2022-10-11T09:07:30.851Z,19.54
2022-10-11T09:08:30.839Z,19.56
2022-10-11T09:09:30.853Z,19.56
2022-10-11T09:10:30.852Z,19.54
2022-10-11T09:11:30.853Z,19.54
2022-10-11T09:12:30.840Z,19.59
2022-10-11T09:13:30.854Z,19.66
2022-10-11T09:14:30.854Z,19.74
2022-10-11T09:15:40.099Z,19.82
2022-10-11T09:16:30.842Z,19.86
2022-10-11T09:17:30.855Z,19.91
2022-10-11T09:18:30.855Z,19.98
2022-10-11T09:19:30.842Z,20.04
2022-10-11T09:20:30.920Z,20.07
2022-10-11T09:21:30.856Z,20.12
2022-10-11T09:22:30.857Z,20.15
2022-10-11T09:23:30.844Z,20.12
2022-10-11T09:24:30.858Z,20.11
2022-10-11T09:25:30.857Z,20.08
2022-10-11T09:26:30.857Z,20.04
2022-10-11T09:27:30.845Z,20.02
2022-10-11T09:28:30.859Z,20.01
2022-10-11T09:29:30.858Z,20.03
2022-10-11T09:30:30.860Z,20.02
2022-10-11T09:31:30.847Z,20.03
2022-10-11T09:32:30.885Z,20.09
2022-10-11T09:33:30.860Z,20.14
2022-10-11T09:34:30.848Z,20.23
2022-10-11T09:35:30.848Z,20.31
2022-10-11T09:36:30.862Z,20.37
2022-10-11T09:37:30.862Z,20.4
2022-10-11T09:38:30.849Z,20.45
2022-10-11T09:39:30.863Z,20.52
2022-10-11T09:40:30.863Z,20.56
2022-10-11T09:41:30.864Z,20.57
2022-10-11T09:42:30.850Z,20.5
2022-10-11T09:43:30.865Z,20.46
2022-10-11T09:44:30.864Z,20.48
2022-10-11T09:45:30.864Z,20.48
2022-10-11T09:46:30.852Z,20.43
2022-10-11T09:47:30.866Z,20.33
2022-10-11T09:48:30.866Z,20.25
2022-10-11T09:49:30.867Z,20.26
2022-10-11T09:50:30.853Z,20.27
2022-10-11T09:51:30.866Z,20.29
2022-10-11T09:52:39.102Z,20.37
2022-10-11T09:53:30.854Z,20.44
2022-10-11T09:54:30.855Z,20.46
2022-10-11T09:55:30.869Z,20.51
2022-10-11T09:56:30.868Z,20.63
2022-10-11T09:57:30.856Z,20.85
2022-10-11T09:58:30.911Z,21.28
2022-10-11T09:59:30.869Z,21.68
2022-10-11T10:00:30.871Z,22.06
2022-10-11T10:01:30.857Z,22.29
2022-10-11T10:02:39.106Z,22.43
2022-10-11T10:03:30.872Z,22.53
2022-10-11T10:04:30.872Z,22.57
2022-10-11T10:05:30.859Z,22.63
2022-10-11T10:06:30.873Z,22.72
2022-10-11T10:07:30.873Z,22.7
2022-10-11T10:08:30.873Z,22.69
2022-10-11T10:09:30.861Z,22.66
2022-10-11T10:10:30.875Z,22.55
2022-10-11T10:11:30.874Z,22.41
2022-10-11T10:12:30.862Z,22.2
2022-10-11T10:13:30.862Z,21.93
2022-10-11T10:14:30.876Z,21.68
2022-10-11T10:15:30.878Z,21.5
2022-10-11T10:16:30.863Z,21.39
2022-10-11T10:17:30.865Z,21.29
2022-10-11T10:18:30.877Z,21.25
2022-10-11T10:19:30.877Z,21.21
2022-10-11T10:20:30.865Z,21.18
2022-10-11T10:21:30.879Z,21.15
2022-10-11T10:22:30.878Z,21.1
2022-10-11T10:23:30.880Z,21.07
2022-10-11T10:24:30.866Z,21.03
2022-10-11T10:25:30.881Z,20.97
2022-10-11T10:26:30.882Z,20.94
2022-10-11T10:27:30.881Z,20.96
2022-10-11T10:28:30.868Z,20.99
2022-10-11T10:29:30.881Z,20.93
2022-10-11T10:30:30.882Z,20.92
2022-10-11T10:31:30.869Z,20.93
2022-10-11T10:32:30.870Z,20.96
2022-10-11T10:33:30.884Z,21.03
2022-10-11T10:34:30.885Z,21.1
2022-10-11T10:35:30.871Z,21.15
2022-10-11T10:36:30.872Z,21.19
2022-10-11T10:37:30.885Z,21.24
2022-10-11T10:38:30.886Z,21.3
2022-10-11T10:39:30.872Z,21.38
2022-10-11T10:40:30.886Z,21.46
2022-10-11T10:41:30.886Z,21.49
2022-10-11T10:42:30.887Z,21.54
2022-10-11T10:43:30.874Z,21.62
2022-10-11T10:44:30.888Z,21.75
2022-10-11T10:45:30.888Z,21.95
2022-10-11T10:46:30.889Z,22.21
2022-10-11T10:47:30.876Z,22.4
2022-10-11T10:48:30.889Z,22.53
2022-10-11T10:49:30.890Z,22.57
2022-10-11T10:50:30.877Z,22.54
2022-10-11T10:51:30.877Z,22.46
2022-10-11T10:52:30.891Z,22.27
2022-10-11T10:53:30.892Z,22.03
2022-10-11T10:54:30.878Z,21.85
2022-10-11T10:55:30.879Z,21.73
2022-10-11T10:56:30.893Z,21.63
2022-10-11T10:57:30.893Z,21.55
2022-10-11T10:58:30.880Z,21.45
2022-10-11T10:59:30.893Z,21.42
2022-10-11T11:00:30.893Z,21.44
2022-10-11T11:01:30.895Z,21.49
2022-10-11T11:02:30.882Z,21.53
2022-10-11T11:03:30.895Z,21.52
2022-10-11T11:04:30.897Z,21.48
2022-10-11T11:05:30.895Z,21.46
2022-10-11T11:06:30.884Z,21.45
2022-10-11T11:07:30.897Z,21.48
2022-10-11T11:08:30.896Z,21.54
2022-10-11T11:09:30.898Z,21.67
2022-10-11T11:10:30.886Z,21.76
2022-10-11T11:11:30.898Z,21.82
2022-10-11T11:12:30.899Z,21.92
2022-10-11T11:13:30.886Z,21.99
2022-10-11T11:14:30.886Z,22
2022-10-11T11:15:30.900Z,22.03
2022-10-11T11:16:30.901Z,22.07
2022-10-11T11:17:30.887Z,22.15
2022-10-11T11:18:30.925Z,22.26
2022-10-11T11:19:30.902Z,22.32
2022-10-11T11:20:30.901Z,22.3
2022-10-11T11:21:30.889Z,22.26
2022-10-11T11:22:30.903Z,22.24
2022-10-11T11:23:30.903Z,22.25
2022-10-11T11:24:30.904Z,22.29
2022-10-11T11:25:30.891Z,22.34
2022-10-11T11:26:30.905Z,22.35
2022-10-11T11:27:30.905Z,22.39
2022-10-11T11:28:30.905Z,22.46
2022-10-11T11:29:30.893Z,22.53
2022-10-11T11:30:30.955Z,22.55
2022-10-11T11:31:30.908Z,22.57
2022-10-11T11:32:30.893Z,22.57
2022-10-11T11:33:30.894Z,22.56
2022-10-11T11:34:30.908Z,22.53
2022-10-11T11:35:30.909Z,22.52
2022-10-11T11:36:30.895Z,22.51
2022-10-11T11:37:30.909Z,22.48
2022-10-11T11:38:30.909Z,22.39
2022-10-11T11:39:30.910Z,22.27
2022-10-11T11:40:30.896Z,22.2
2022-10-11T11:41:30.911Z,22.13
2022-10-11T11:42:30.977Z,22.09
2022-10-11T11:43:30.911Z,22.08
2022-10-11T11:44:30.898Z,22.06
2022-10-11T11:45:30.912Z,22.05
2022-10-11T11:46:30.912Z,22.05
2022-10-11T11:47:30.912Z,22.02
2022-10-11T11:48:30.900Z,21.98
2022-10-11T11:49:30.913Z,21.96
2022-10-11T11:50:30.913Z,21.98
2022-10-11T11:51:30.901Z,22.02
2022-10-11T11:52:30.902Z,22.06
2022-10-11T11:53:30.914Z,22.06
2022-10-11T11:54:30.980Z,22.04
2022-10-11T11:55:30.902Z,22.04
2022-10-11T11:56:30.916Z,22.07
2022-10-11T11:57:30.916Z,22.1
2022-10-11T11:58:30.916Z,22.18
2022-10-11T11:59:30.904Z,22.36
2022-10-11T12:00:30.918Z,22.67
2022-10-11T12:01:30.917Z,23
2022-10-11T12:02:30.918Z,23.5
2022-10-11T12:03:30.906Z,24.16
2022-10-11T12:04:30.920Z,24.44
2022-10-11T12:05:30.920Z,24.38
2022-10-11T12:06:30.907Z,24.22
2022-10-11T12:07:30.907Z,24.03
2022-10-11T12:08:30.921Z,23.86
2022-10-11T12:09:30.922Z,23.7
2022-10-11T12:10:30.908Z,23.62
2022-10-11T12:11:30.909Z,23.63
2022-10-11T12:12:30.923Z,23.71
2022-10-11T12:13:30.923Z,23.82
2022-10-11T12:14:30.910Z,23.91
2022-10-11T12:15:30.924Z,23.92
2022-10-11T12:16:30.925Z,23.89
2022-10-11T12:17:30.925Z,23.88
2022-10-11T12:18:30.912Z,23.87
2022-10-11T12:19:30.926Z,23.83
2022-10-11T12:20:30.977Z,23.82
2022-10-11T12:21:30.927Z,23.81
2022-10-11T12:22:30.913Z,23.85
2022-10-11T12:23:30.928Z,23.97
2022-10-11T12:24:30.928Z,24.11
2022-10-11T12:25:30.928Z,24.18
2022-10-11T12:26:30.915Z,24.18
2022-10-11T12:27:30.929Z,24.12
2022-10-11T12:28:30.929Z,24.01
2022-10-11T12:29:30.916Z,23.97
2022-10-11T12:30:30.918Z,24.03
2022-10-11T12:31:40.189Z,24.27
2022-10-11T12:32:30.930Z,24.65
2022-10-11T12:33:30.918Z,25.07
2022-10-11T12:34:30.932Z,25.37
2022-10-11T12:35:30.933Z,25.41
2022-10-11T12:36:30.933Z,25.25
2022-10-11T12:37:30.920Z,24.96
2022-10-11T12:38:30.933Z,24.66
2022-10-11T12:39:30.999Z,24.46
2022-10-11T12:40:30.934Z,24.27
2022-10-11T12:41:30.923Z,24.1
2022-10-11T12:42:30.936Z,23.98
2022-10-11T12:43:30.936Z,23.9
2022-10-11T12:44:30.935Z,23.87
2022-10-11T12:45:30.923Z,23.89
2022-10-11T12:46:30.936Z,23.87
2022-10-11T12:47:30.937Z,23.82
2022-10-11T12:48:30.924Z,23.76
2022-10-11T12:49:30.925Z,23.69
2022-10-11T12:50:30.938Z,23.61
2022-10-11T12:51:30.938Z,23.56
2022-10-11T12:52:30.926Z,23.52
2022-10-11T12:53:30.940Z,23.53
2022-10-11T12:54:30.941Z,23.5
2022-10-11T12:55:30.940Z,23.48